aviador You're here:

KNUI Decoded Metar

WEBSTER NAVAL in MD, USA
Report Time2017-11-24 19:53:00
UTC Time2017-11-24 20:05:51
Flight Rules vfr VFR
WindCalm
Visibility9999 m
Phenomena:N/A
Clouds:N/A
Expected CloudBase > 5,200 ft AGL from Temp-Dew spread
CeilingNone
Temp11°C (ISA -4)
Dew Point-2°C (41% RH)
AAT8.8°C
QNH1016 hPa
Density Alt-476 ft
Elevation23 ft
Report Wrong Elevation
Raw Report
KNUI 241953Z AUTO 00000KT 10SM CLR 11/M02 A3000 RMK AO2 SLP158
T01061017=

Extra information for KNUI:More info

Metar Taf Metar & Taf Last 4 Metars F.Rules Stats Wind Profile Meteogram Temp Stats Airport Information Weather charts Add Link Nearby VenuesMetar ALERT Operation Metar Decoded Social comments

AIRNAV info for KNUI